Latest Weather Observations for Portland Harbour

IDV60801

Issued at 4:12 pm EDT Monday 30 March 2020 (issued every 10 minutes, with the page automatically refreshed every 10 minutes)

About weather observations | Map of weather stations | Latest weather observations for VIC | Other Formats
Station Details ID: 090192 Name: PORTLAND NTC AWS Lat: -38.34 Lon: 141.61 Height: 0.0 m
Data from the previous 72 hours. | See also: Recent months for locations in Victoria
Date/Time
EDT
Temp
°C
App
Temp
°C
Dew
Point
°C
Rel
Hum
%
Delta-T
°C
Wind Press
QNH
hPa
Press
MSL
hPa
Rain since
9am
mm
Dir  Spd
km/h
Gust
km/h
Spd
kts
Gust
kts
30/04:00pm 18.0 - - - - W 22 33 12 18 1012.8 1012.8 -
30/03:30pm 16.9 - - - - W 19 30 10 16 1013.0 1013.0 -
30/03:23pm 16.4 - - - - W 28 48 15 26 1013.1 1013.1 -
30/03:00pm 18.1 - - - - W 28 41 15 22 1012.8 1012.8 -
30/02:30pm 16.1 - - - - WSW 32 41 17 22 1013.3 1013.3 -
30/02:15pm 18.2 - - - - W 33 54 18 29 1012.9 1012.9 -
30/02:00pm 18.3 - - - - W 32 44 17 24 1012.9 1012.9 -
30/01:30pm 18.1 - - - - W 32 41 17 22 1013.0 1013.0 -
30/01:00pm 18.1 - - - - WNW 26 41 14 22 1013.1 1013.1 -
30/12:30pm 17.5 - - - - WNW 32 43 17 23 1013.1 1013.1 -
30/12:17pm 17.7 - - - - WNW 32 46 17 25 1013.0 1013.0 -
30/12:00pm 17.3 - - - - WNW 20 28 11 15 1012.9 1012.9 -
30/11:30am 16.5 - - - - NW 22 30 12 16 1013.0 1013.0 -
30/11:00am 15.6 - - - - NW 19 30 10 16 1013.3 1013.3 -
30/10:30am 15.4 - - - - NW 17 26 9 14 1013.0 1013.0 -
30/10:00am 14.8 - - - - NW 13 22 7 12 1012.8 1012.8 -
30/09:30am 14.2 - - - - NNW 13 19 7 10 1012.7 1012.7 -
30/09:00am 13.6 - - - - NNW 11 17 6 9 1012.4 1012.4 -
30/08:30am 13.4 - - - - NNW 9 17 5 9 1012.0 1012.0 -
30/08:00am 13.3 - - - - NNW 9 17 5 9 1011.6 1011.6 -
30/07:30am 13.6 - - - - NNW 17 22 9 12 1011.1 1011.1 -
30/07:00am 13.3 - - - - NNW 15 19 8 10 1010.9 1010.9 -
30/06:30am 13.2 - - - - NNW 9 13 5 7 1010.8 1010.8 -
30/06:00am 13.1 - - - - WNW 6 9 3 5 1010.6 1010.6 -
30/05:30am 13.3 - - - - NNW 15 20 8 11 1010.4 1010.4 -
30/05:00am 13.7 - - - - NNW 9 13 5 7 1010.6 1010.6 -
30/04:30am 14.2 - - - - NNW 11 17 6 9 1010.6 1010.6 -
30/04:00am 14.4 - - - - NW 9 13 5 7 1010.5 1010.5 -
30/03:30am 14.8 - - - - WNW 15 20 8 11 1010.7 1010.7 -
30/03:00am 14.7 - - - - NW 17 26 9 14 1010.9 1010.9 -
30/02:30am 14.7 - - - - NNW 9 13 5 7 1011.1 1011.1 -
30/02:00am 14.8 - - - - NNW 11 15 6 8 1011.0 1011.0 -
30/01:30am 14.9 - - - - NNW 13 19 7 10 1011.2 1011.2 -
30/01:00am 14.8 - - - - NNW 13 19 7 10 1011.2 1011.2 -
30/12:30am 14.8 - - - - NNW 13 17 7 9 1011.2 1011.2 -
30/12:00am 15.2 - - - - NNW 9 13 5 7 1011.1 1011.1 -
 
Date/Time
EDT
Temp
°C
App
Temp
°C
Dew
Point
°C
Rel
Hum
%
Delta-T
°C
Wind Press
QNH
hPa
Press
MSL
hPa
Rain since
9am
mm
Dir  Spd
km/h
Gust
km/h
Spd
kts
Gust
kts
29/11:30pm 15.5 - - - - NNW 15 20 8 11 1011.1 1011.1 -
29/11:00pm 15.6 - - - - NNW 13 17 7 9 1011.1 1011.1 -
29/10:30pm 15.8 - - - - NW 13 19 7 10 1010.9 1010.9 -
29/10:00pm 16.0 - - - - NW 13 17 7 9 1010.8 1010.8 -
29/09:30pm 16.1 - - - - WNW 15 22 8 12 1010.5 1010.5 -
29/09:00pm 16.1 - - - - WNW 17 26 9 14 1010.2 1010.2 -
29/08:30pm 16.3 - - - - W 19 32 10 17 1009.8 1009.8 -
29/08:00pm 16.7 - - - - W 22 32 12 17 1009.3 1009.3 -
29/07:30pm 17.2 - - - - W 26 44 14 24 1008.9 1008.9 -
29/07:00pm 18.1 - - - - W 24 37 13 20 1008.5 1008.5 -
29/06:30pm 18.7 - - - - W 32 44 17 24 1007.9 1007.9 -
29/06:00pm 19.3 - - - - W 33 48 18 26 1007.5 1007.5 -
29/05:30pm 19.4 - - - - W 35 52 19 28 1006.9 1006.9 -
29/05:25pm 19.8 - - - - W 32 50 17 27 1006.9 1006.9 -
29/05:00pm 20.1 - - - - W 30 43 16 23 1006.6 1006.6 -
29/04:30pm 20.5 - - - - W 32 48 17 26 1006.4 1006.4 -
29/04:00pm 20.7 - - - - W 33 50 18 27 1006.4 1006.4 -
29/03:30pm 20.5 - - - - W 32 44 17 24 1006.5 1006.5 -
29/03:00pm 20.2 - - - - W 37 52 20 28 1006.6 1006.6 -
29/02:30pm 20.4 - - - - W 35 54 19 29 1006.7 1006.7 -
29/02:00pm 20.4 - - - - W 35 52 19 28 1006.7 1006.7 -
29/01:45pm 20.6 - - - - NW 41 59 22 32 1006.7 1006.7 -
29/01:30pm 23.0 - - - - NW 35 59 19 32 1006.3 1006.3 -
29/01:07pm 22.1 - - - - NNW 37 57 20 31 1006.5 1006.5 -
29/01:00pm 22.0 - - - - NNW 37 52 20 28 1006.6 1006.6 -
29/12:30pm 21.0 - - - - NNW 33 50 18 27 1006.9 1006.9 -
29/12:00pm 20.3 - - - - NNW 30 39 16 21 1007.2 1007.2 -
29/11:30am 20.2 - - - - N 41 52 22 28 1007.0 1007.0 -
29/11:00am 20.3 - - - - NNW 43 54 23 29 1007.8 1007.8 -
29/10:30am 20.2 - - - - N 43 54 23 29 1007.6 1007.6 -
29/10:11am 21.3 - - - - NNW 41 61 22 33 1007.4 1007.4 -
29/10:00am 21.5 - - - - N 43 56 23 30 1006.6 1006.6 -
29/09:51am 21.1 - - - - N 50 67 27 36 1006.5 1006.5 -
29/09:42am 22.0 - - - - N 48 69 26 37 1006.5 1006.5 -
29/09:37am 21.8 - - - - N 39 65 21 35 1006.6 1006.6 -
29/09:30am 21.7 - - - - N 32 43 17 23 1006.7 1006.7 -
29/09:00am 21.7 - - - - N 33 39 18 21 1006.6 1006.6 -
29/08:30am 21.8 - - - - N 35 44 19 24 1006.6 1006.6 -
29/08:00am 22.2 - - - - N 33 41 18 22 1006.4 1006.4 -
29/07:30am 22.7 - - - - N 35 44 19 24 1006.4 1006.4 -
29/07:00am 23.0 - - - - N 39 48 21 26 1006.5 1006.5 -
29/06:30am 23.1 - - - - N 44 61 24 33 1006.2 1006.2 -
29/06:00am 23.1 - - - - N 43 56 23 30 1006.2 1006.2 -
29/05:30am 23.6 - - - - N 43 56 23 30 1006.4 1006.4 -
29/05:00am 23.6 - - - - N 41 52 22 28 1006.5 1006.5 -
29/04:30am 23.1 - - - - N 41 50 22 27 1006.7 1006.7 -
29/04:00am 23.4 - - - - N 39 48 21 26 1007.0 1007.0 -
29/03:32am 23.0 - - - - N 28 50 15 27 1007.3 1007.3 -
29/03:30am 22.0 - - - - N 24 35 13 19 1007.4 1007.4 -
29/03:00am 19.2 - - - - NNE 6 9 3 5 1007.9 1007.9 -
29/02:30am 18.3 - - - - CALM 0 2 0 1 1008.5 1008.5 -
29/02:00am 18.3 - - - - N 4 4 2 2 1008.7 1008.7 -
29/01:30am 18.9 - - - - NNE 4 7 2 4 1009.2 1009.2 -
29/01:00am 19.2 - - - - N 9 11 5 6 1009.6 1009.6 -
29/12:30am 19.1 - - - - NNE 7 9 4 5 1010.1 1010.1 -
29/12:00am 18.9 - - - - NNE 7 11 4 6 1010.6 1010.6 -
 
Date/Time
EDT
Temp
°C
App
Temp
°C
Dew
Point
°C
Rel
Hum
%
Delta-T
°C
Wind Press
QNH
hPa
Press
MSL
hPa
Rain since
9am
mm
Dir  Spd
km/h
Gust
km/h
Spd
kts
Gust
kts
28/11:30pm 18.5 - - - - NNE 4 6 2 3 1011.2 1011.2 -
28/11:00pm 18.1 - - - - NNE 4 7 2 4 1011.5 1011.5 -
28/10:30pm 18.0 - - - - NNE 6 6 3 3 1011.9 1011.9 -
28/10:00pm 18.2 - - - - NNE 9 9 5 5 1012.2 1012.2 -
28/09:30pm 18.1 - - - - N 9 11 5 6 1012.3 1012.3 -
28/09:00pm 18.5 - - - - NE 2 4 1 2 1012.2 1012.2 -
28/08:30pm 20.0 - - - - NW 2 4 1 2 1012.1 1012.1 -
28/08:00pm 20.8 - - - - SSW 4 6 2 3 1012.1 1012.1 -
28/07:30pm 22.2 - - - - SW 9 13 5 7 1012.2 1012.2 -
28/07:00pm 23.3 - - - - SW 11 17 6 9 1012.1 1012.1 -
28/06:30pm 24.0 - - - - SW 13 19 7 10 1012.0 1012.0 -
28/06:00pm 24.6 - - - - SW 17 28 9 15 1012.1 1012.1 -
28/05:30pm 25.4 - - - - SW 15 19 8 10 1012.0 1012.0 -
28/05:00pm 23.9 - - - - SSW 15 17 8 9 1012.2 1012.2 -
28/04:30pm 24.0 - - - - S 19 24 10 13 1012.0 1012.0 -
28/04:27pm 23.9 - - - - S 19 24 10 13 1012.1 1012.1 -
28/04:00pm 29.0 - - - - NNW 19 32 10 17 1012.1 1012.1 -
28/03:30pm 28.4 - - - - NNW 28 35 15 19 1012.4 1012.4 -
28/03:00pm 27.6 - - - - N 30 43 16 23 1012.9 1012.9 -
28/02:30pm 25.9 - - - - N 30 41 16 22 1013.3 1013.3 -
28/02:00pm 26.4 - - - - N 35 50 19 27 1013.7 1013.7 -
28/01:30pm 25.5 - - - - NNW 32 43 17 23 1014.2 1014.2 -
28/01:00pm 26.8 - - - - NNW 35 56 19 30 1014.5 1014.5 -
28/12:51pm 26.5 - - - - NNW 30 56 16 30 1014.7 1014.7 -
28/12:30pm 26.1 - - - - N 32 43 17 23 1015.0 1015.0 -
28/12:00pm 24.4 - - - - N 26 37 14 20 1015.3 1015.3 -
28/11:30am 23.4 - - - - N 24 33 13 18 1015.9 1015.9 -
28/11:00am 21.7 - - - - N 24 28 13 15 1016.3 1016.3 -
28/10:30am 21.0 - - - - N 24 32 13 17 1016.6 1016.6 -
28/10:00am 20.5 - - - - NNW 20 24 11 13 1016.9 1016.9 -
28/09:30am 20.0 - - - - NNW 20 28 11 15 1017.0 1017.0 -
28/09:28am 20.0 - - - - NNW 20 28 11 15 1017.0 1017.0 -
28/09:00am 15.0 - - - - SSW 6 7 3 4 1017.0 1017.0 -
28/08:30am 14.0 - - - - SSW 6 7 3 4 1017.0 1017.0 -
28/08:00am 13.3 - - - - SW 7 9 4 5 1017.0 1017.0 -
28/07:30am 13.4 - - - - SW 4 7 2 4 1016.9 1016.9 -
28/07:00am 13.3 - - - - SW 6 7 3 4 1016.9 1016.9 -
28/06:30am 13.9 - - - - W 4 6 2 3 1016.9 1016.9 -
28/06:00am 13.2 - - - - WSW 4 6 2 3 1017.0 1017.0 -
28/05:30am 13.4 - - - - WSW 4 6 2 3 1017.0 1017.0 -
28/05:00am 13.2 - - - - SW 4 6 2 3 1017.0 1017.0 -
28/04:30am 13.5 - - - - SW 4 4 2 2 1017.1 1017.1 -
28/04:00am 13.8 - - - - SW 4 6 2 3 1017.3 1017.3 -
28/03:30am 15.2 - - - - NNW 4 6 2 3 1017.7 1017.7 -
28/03:00am 16.3 - - - - NE 4 4 2 2 1018.1 1018.1 -
28/02:30am 16.5 - - - - ENE 4 6 2 3 1018.3 1018.3 -
28/02:00am 16.5 - - - - ESE 7 9 4 5 1018.5 1018.5 -
28/01:30am 15.9 - - - - SSE 2 6 1 3 1018.9 1018.9 -
28/01:00am 15.2 - - - - SSW 6 6 3 3 1019.0 1019.0 -
28/12:30am 15.2 - - - - SSW 4 6 2 3 1019.2 1019.2 -
28/12:00am 15.4 - - - - SW 4 4 2 2 1019.6 1019.6 -
 
Date/Time
EDT
Temp
°C
App
Temp
°C
Dew
Point
°C
Rel
Hum
%
Delta-T
°C
Wind Press
QNH
hPa
Press
MSL
hPa
Rain since
9am
mm
Dir  Spd
km/h
Gust
km/h
Spd
kts
Gust
kts
27/11:30pm 15.7 - - - - SSW 6 7 3 4 1019.8 1019.8 -
27/11:00pm 16.4 - - - - SE 6 9 3 5 1020.0 1020.0 -
27/10:30pm 16.5 - - - - SE 6 9 3 5 1020.2 1020.2 -
27/10:00pm 16.4 - - - - ESE 9 13 5 7 1020.4 1020.4 -
27/09:30pm 16.5 - - - - E 11 15 6 8 1020.5 1020.5 -
27/09:00pm 16.5 - - - - E 13 19 7 10 1020.5 1020.5 -
27/08:30pm 16.6 - - - - ESE 9 13 5 7 1020.5 1020.5 -
27/08:00pm 16.6 - - - - ESE 9 13 5 7 1020.5 1020.5 -
27/07:30pm 16.6 - - - - ESE 7 11 4 6 1020.7 1020.7 -
27/07:00pm 16.6 - - - - ESE 7 11 4 6 1020.7 1020.7 -
27/06:30pm 16.5 - - - - E 11 13 6 7 1020.5 1020.5 -
27/06:00pm 16.7 - - - - ESE 11 15 6 8 1020.5 1020.5 -
27/05:30pm 16.7 - - - - ESE 15 17 8 9 1020.9 1020.9 -
27/05:00pm 16.7 - - - - SE 15 19 8 10 1021.0 1021.0 -
27/04:30pm 16.4 - - - - SE 15 19 8 10 1021.4 1021.4 -

Other formats

Comma delimited format used in spreadsheet applications
http://www.bom.gov.au/fwo/IDV60801/IDV60801.95826.axf

JavaScript Object Notation format (JSON) in row-major order
http://www.bom.gov.au/fwo/IDV60801/IDV60801.95826.json

Data quality

Most of these data are generated automatically and are frequently updated. Quality checks on data are not normally performed. It is possible for incorrect values to appear. Refer to information at About Latest Weather Observations and please check the disclaimer before using these data.